Time;durP1;ratioP1;P1;durP2;ratioP2;P2;SDS_P1;SDS_P2;PMS_P1;PMS_P2;Temp;Humidity;BMP_temperature;BMP_pressure;BME280_temperature;BME280_humidity;BME280_pressure;Samples;Min_cycle;Max_cycle;Signal;HPM_P1;HPM_P2
2023/07/09 00:01:58;;;;;;;7.43;6.57;;;18.90;76.10;;;;;;4998143;28;20485;-85
2023/07/09 00:04:24;;;;;;;8.27;6.07;;;18.90;76.10;;;;;;4975130;28;20107;-86
2023/07/09 00:07:00;;;;;;;7.82;6.25;;;18.80;75.70;;;;;;4971682;28;20034;-87
2023/07/09 00:09:26;;;;;;;6.63;5.93;;;18.80;76.00;;;;;;4989430;28;20022;-87
2023/07/09 00:11:52;;;;;;;8.30;6.38;;;18.80;76.20;;;;;;4960825;28;20031;-86
2023/07/09 00:14:18;;;;;;;9.38;6.45;;;18.70;75.70;;;;;;4956750;28;20744;-86
2023/07/09 00:16:48;;;;;;;10.13;7.32;;;18.70;75.20;;;;;;4983980;28;20026;-87
2023/07/09 00:19:20;;;;;;;8.68;6.90;;;18.70;75.20;;;;;;4976843;28;20038;-87
2023/07/09 00:21:49;;;;;;;7.97;6.78;;;18.60;75.30;;;;;;4972695;28;20050;-86
2023/07/09 00:24:15;;;;;;;11.45;7.03;;;18.60;75.10;;;;;;4962838;28;20035;-86
2023/07/09 00:26:41;;;;;;;9.40;6.55;;;18.50;75.20;;;;;;4969419;28;20118;-86
2023/07/09 00:29:11;;;;;;;8.95;7.50;;;18.50;75.70;;;;;;4992782;28;20031;-87
2023/07/09 00:31:40;;;;;;;9.50;6.95;;;18.40;76.10;;;;;;4965847;28;20130;-87
2023/07/09 00:34:11;;;;;;;8.50;6.68;;;18.40;76.40;;;;;;4972958;28;20031;-86
2023/07/09 00:36:38;;;;;;;11.18;7.05;;;18.30;76.90;;;;;;4976864;28;20034;-86
2023/07/09 00:39:05;;;;;;;9.05;6.93;;;18.30;76.80;;;;;;4976732;28;20409;-86
2023/07/09 00:41:37;;;;;;;9.95;7.28;;;18.30;77.40;;;;;;4976425;28;20045;-86
2023/07/09 00:44:28;;;;;;;9.77;6.97;;;18.20;77.60;;;;;;4991931;28;20070;-86
2023/07/09 00:47:03;;;;;;;8.73;7.47;;;18.20;78.10;;;;;;4993151;28;20373;-86
2023/07/09 00:49:34;;;;;;;8.85;7.03;;;18.10;78.50;;;;;;5011669;28;20026;-85
2023/07/09 00:52:17;;;;;;;9.43;7.85;;;18.10;79.60;;;;;;4980296;28;20030;-85
2023/07/09 00:54:46;;;;;;;9.48;7.53;;;18.00;79.20;;;;;;4961344;28;20093;-85
2023/07/09 00:57:18;;;;;;;9.70;7.55;;;18.00;79.10;;;;;;4991473;28;20038;-85
2023/07/09 00:59:56;;;;;;;8.73;6.90;;;18.00;78.60;;;;;;4983867;28;20043;-86
2023/07/09 01:02:24;;;;;;;9.00;7.10;;;18.00;79.70;;;;;;4979955;28;20026;-85
2023/07/09 01:04:52;;;;;;;9.30;6.97;;;18.00;79.50;;;;;;4991188;28;20037;-86
2023/07/09 01:07:19;;;;;;;10.50;7.47;;;17.90;79.40;;;;;;4970098;28;20123;-85
2023/07/09 01:09:48;;;;;;;10.57;8.05;;;17.90;79.90;;;;;;4988695;28;20062;-86
2023/07/09 01:12:21;;;;;;;9.35;7.57;;;17.80;81.10;;;;;;5001964;28;20043;-85
2023/07/09 01:14:51;;;;;;;9.30;7.57;;;17.80;81.40;;;;;;5015637;28;20060;-87
2023/07/09 01:17:18;;;;;;;11.50;8.15;;;17.70;81.10;;;;;;4979801;28;20050;-88
2023/07/09 01:19:49;;;;;;;9.52;8.18;;;17.70;81.20;;;;;;4960597;28;20049;-87
2023/07/09 01:22:18;;;;;;;11.68;8.20;;;17.60;80.90;;;;;;4974661;28;20064;-86
2023/07/09 01:24:52;;;;;;;10.48;7.80;;;17.60;81.10;;;;;;4975246;28;20521;-86
2023/07/09 01:27:26;;;;;;;10.73;8.53;;;17.60;81.00;;;;;;4992225;28;20033;-86
2023/07/09 01:29:53;;;;;;;11.63;8.05;;;17.60;80.90;;;;;;4983870;28;20027;-88
2023/07/09 01:32:21;;;;;;;9.38;8.20;;;17.60;81.20;;;;;;4961536;28;20031;-87
2023/07/09 01:34:49;;;;;;;13.82;7.97;;;17.60;81.00;;;;;;4956217;28;20037;-86
2023/07/09 01:37:36;;;;;;;10.27;7.70;;;17.60;81.00;;;;;;4989182;28;20049;-86
2023/07/09 01:40:05;;;;;;;12.75;8.00;;;17.50;80.90;;;;;;4978295;28;20182;-86
2023/07/09 01:42:31;;;;;;;8.90;8.00;;;17.50;81.20;;;;;;4974303;28;20418;-86
2023/07/09 01:44:57;;;;;;;8.70;7.80;;;17.50;81.20;;;;;;4957705;28;20034;-85
2023/07/09 01:47:24;;;;;;;10.20;8.40;;;17.40;81.10;;;;;;4993924;28;20034;-86
2023/07/09 01:49:51;;;;;;;10.30;7.95;;;17.40;81.50;;;;;;4988942;28;20030;-86
2023/07/09 01:52:19;;;;;;;10.55;7.40;;;17.40;81.60;;;;;;4965746;28;20057;-87
2023/07/09 01:54:49;;;;;;;11.40;8.25;;;17.40;83.20;;;;;;4982975;28;20061;-86
2023/07/09 01:57:19;;;;;;;9.30;7.72;;;17.40;82.50;;;;;;4991851;28;20041;-86
2023/07/09 01:59:45;;;;;;;10.30;8.00;;;17.30;82.60;;;;;;4995189;28;20037;-86
2023/07/09 02:02:20;;;;;;;8.48;7.40;;;17.30;83.20;;;;;;4978352;28;20036;-86
2023/07/09 02:04:48;;;;;;;11.63;7.60;;;17.20;83.50;;;;;;4979462;28;20038;-87
2023/07/09 02:07:15;;;;;;;8.32;7.20;;;17.20;83.80;;;;;;4963614;28;20042;-87
2023/07/09 02:09:41;;;;;;;8.80;7.75;;;17.10;83.80;;;;;;5001729;28;20026;-86
2023/07/09 02:12:09;;;;;;;11.00;7.85;;;17.10;84.20;;;;;;4974628;28;20153;-86
2023/07/09 02:14:35;;;;;;;9.98;7.53;;;17.10;84.50;;;;;;4986757;28;20018;-86
2023/07/09 02:17:01;;;;;;;8.90;7.72;;;17.10;85.50;;;;;;4969328;28;20034;-86
2023/07/09 02:19:29;;;;;;;8.98;7.63;;;17.10;85.70;;;;;;4963773;28;20505;-86
2023/07/09 02:21:55;;;;;;;11.38;7.68;;;17.00;85.80;;;;;;4971668;28;20417;-86
2023/07/09 02:24:24;;;;;;;9.20;7.82;;;17.00;86.20;;;;;;4973776;28;20030;-87
2023/07/09 02:26:54;;;;;;;10.77;7.50;;;17.00;85.90;;;;;;4990256;28;20031;-87
2023/07/09 02:29:21;;;;;;;11.45;7.75;;;17.00;85.80;;;;;;4987029;28;20438;-86
2023/07/09 02:31:49;;;;;;;9.50;7.75;;;17.00;86.20;;;;;;4983929;28;20039;-87
2023/07/09 02:34:15;;;;;;;9.13;8.23;;;17.00;86.20;;;;;;4977162;28;20109;-85
2023/07/09 02:36:42;;;;;;;10.00;7.60;;;16.90;86.50;;;;;;4966872;28;20512;-87
2023/07/09 02:39:13;;;;;;;10.82;7.95;;;16.90;86.90;;;;;;4960480;28;20105;-86
2023/07/09 02:41:40;;;;;;;10.15;8.48;;;16.90;87.50;;;;;;4967378;28;20048;-88
2023/07/09 02:44:07;;;;;;;11.13;7.70;;;16.90;87.70;;;;;;5009208;28;20057;-88
2023/07/09 02:46:33;;;;;;;10.13;8.45;;;16.90;87.50;;;;;;5002248;28;20484;-87
2023/07/09 02:48:58;;;;;;;10.68;8.57;;;16.80;87.60;;;;;;4961666;28;20081;-87
2023/07/09 02:51:28;;;;;;;9.65;8.20;;;16.80;87.60;;;;;;4990575;28;20031;-87
2023/07/09 02:53:55;;;;;;;10.32;8.73;;;16.80;87.50;;;;;;4945692;28;20525;-87
2023/07/09 02:56:22;;;;;;;10.73;8.57;;;16.80;87.80;;;;;;4991495;28;20113;-88
2023/07/09 02:58:47;;;;;;;10.07;8.27;;;16.80;88.30;;;;;;4957253;28;20065;-87
2023/07/09 03:01:13;;;;;;;8.68;7.70;;;16.70;88.70;;;;;;4984760;28;20446;-88
2023/07/09 03:03:40;;;;;;;9.75;8.75;;;16.70;88.70;;;;;;4982793;28;20037;-88
2023/07/09 03:06:06;;;;;;;9.43;8.38;;;16.70;88.90;;;;;;4990299;28;20034;-89
2023/07/09 03:08:32;;;;;;;10.00;8.32;;;16.70;88.90;;;;;;4962679;28;20034;-87
2023/07/09 03:11:11;;;;;;;11.38;8.77;;;16.70;89.20;;;;;;5003474;28;20030;-86
2023/07/09 03:13:37;;;;;;;9.88;8.50;;;16.70;89.70;;;;;;4982183;28;20110;-86
2023/07/09 03:16:03;;;;;;;9.38;8.43;;;16.70;89.50;;;;;;5014502;28;20046;-86
2023/07/09 03:18:29;;;;;;;10.80;9.07;;;16.70;89.80;;;;;;4982111;28;20043;-86
2023/07/09 03:20:55;;;;;;;9.52;8.27;;;16.70;90.50;;;;;;4966560;28;20036;-86
2023/07/09 03:23:21;;;;;;;9.82;8.80;;;16.70;90.80;;;;;;4966752;28;20504;-86
2023/07/09 03:25:47;;;;;;;11.77;8.77;;;16.60;91.20;;;;;;4997648;28;20102;-87
2023/07/09 03:28:13;;;;;;;12.95;8.85;;;16.60;91.10;;;;;;4965924;28;20041;-87
2023/07/09 03:30:44;;;;;;;11.45;8.90;;;16.50;91.10;;;;;;4982846;28;20057;-86
2023/07/09 03:33:11;;;;;;;9.45;8.45;;;16.50;91.20;;;;;;4966356;28;20393;-87
2023/07/09 03:35:38;;;;;;;10.45;8.43;;;16.50;91.50;;;;;;4998465;28;20038;-86
2023/07/09 03:38:05;;;;;;;10.85;8.25;;;16.50;91.60;;;;;;4966298;28;20043;-86
2023/07/09 03:40:31;;;;;;;10.30;7.68;;;16.50;91.40;;;;;;4965563;28;20041;-85
2023/07/09 03:42:57;;;;;;;8.98;7.25;;;16.50;91.50;;;;;;4981043;28;20037;-86
2023/07/09 03:45:23;;;;;;;12.63;8.45;;;16.50;91.90;;;;;;4997372;28;20093;-86
2023/07/09 03:47:48;;;;;;;8.60;7.55;;;16.40;91.70;;;;;;4997104;28;20042;-87
2023/07/09 03:50:15;;;;;;;9.25;7.97;;;16.40;91.80;;;;;;4964730;28;20034;-88
2023/07/09 03:52:41;;;;;;;9.00;7.65;;;16.40;92.00;;;;;;4980715;28;20041;-87
2023/07/09 03:55:08;;;;;;;9.05;7.80;;;16.40;92.40;;;;;;4980917;28;20057;-86
2023/07/09 03:57:34;;;;;;;8.82;7.93;;;16.50;92.50;;;;;;4981234;28;20111;-85
2023/07/09 04:00:04;;;;;;;8.82;7.55;;;16.50;92.90;;;;;;4981208;28;20097;-86
2023/07/09 04:02:43;;;;;;;10.63;8.18;;;16.50;92.60;;;;;;4990668;28;20052;-86
2023/07/09 04:05:10;;;;;;;9.43;7.15;;;16.50;92.90;;;;;;4979877;28;20039;-86
2023/07/09 04:07:36;;;;;;;10.32;7.75;;;16.40;93.10;;;;;;4993707;28;20031;-87
2023/07/09 04:10:01;;;;;;;10.43;8.10;;;16.40;93.20;;;;;;4977823;28;20067;-86
2023/07/09 04:12:27;;;;;;;8.63;7.45;;;16.50;93.40;;;;;;4996584;28;20037;-86
2023/07/09 04:14:53;;;;;;;8.05;7.20;;;16.50;93.50;;;;;;4980576;28;20045;-86
2023/07/09 04:17:19;;;;;;;8.20;6.93;;;16.50;94.10;;;;;;4963799;28;20030;-86
2023/07/09 04:19:45;;;;;;;10.98;7.90;;;16.50;93.90;;;;;;4963651;28;20508;-87
2023/07/09 04:22:11;;;;;;;9.52;7.18;;;16.60;94.20;;;;;;4981352;28;20045;-86
2023/07/09 04:24:37;;;;;;;9.48;7.22;;;16.60;94.10;;;;;;4964099;28;20101;-86
2023/07/09 04:27:03;;;;;;;8.57;7.22;;;16.60;94.00;;;;;;4975809;28;20141;-86
2023/07/09 04:29:30;;;;;;;8.68;7.57;;;16.60;94.40;;;;;;5012340;28;20022;-85
2023/07/09 04:31:56;;;;;;;9.30;7.75;;;16.70;94.60;;;;;;5012501;28;20577;-86
2023/07/09 04:34:22;;;;;;;11.45;8.80;;;16.70;94.70;;;;;;4976220;28;20030;-86
2023/07/09 04:36:48;;;;;;;15.30;8.02;;;16.80;95.10;;;;;;4979137;28;20034;-86
2023/07/09 04:39:14;;;;;;;8.80;7.80;;;16.80;95.00;;;;;;4995451;28;20408;-86
2023/07/09 04:41:40;;;;;;;9.50;8.13;;;16.80;95.20;;;;;;4965530;28;20042;-85
2023/07/09 04:44:06;;;;;;;8.40;7.43;;;16.90;94.90;;;;;;4971908;28;20034;-85
2023/07/09 04:46:32;;;;;;;11.52;8.95;;;17.00;94.90;;;;;;4991771;28;20405;-86
2023/07/09 04:49:00;;;;;;;9.05;8.15;;;17.00;95.00;;;;;;4991277;28;20030;-85
2023/07/09 04:51:26;;;;;;;10.45;8.65;;;17.10;94.70;;;;;;4969059;28;20492;-85
2023/07/09 04:53:52;;;;;;;11.13;9.90;;;17.20;94.70;;;;;;4975404;28;20034;-85
2023/07/09 04:56:18;;;;;;;11.50;9.88;;;17.20;94.80;;;;;;4976418;28;20041;-85
2023/07/09 04:58:44;;;;;;;11.18;8.85;;;17.30;94.60;;;;;;4988448;28;20038;-87
2023/07/09 05:01:10;;;;;;;10.88;8.68;;;17.40;95.00;;;;;;4982101;28;20389;-87
2023/07/09 05:03:36;;;;;;;9.20;8.02;;;17.40;95.50;;;;;;4998326;28;20046;-85
2023/07/09 05:06:03;;;;;;;10.07;8.60;;;17.60;95.60;;;;;;4951202;28;20077;-84
2023/07/09 05:08:28;;;;;;;10.50;8.35;;;17.60;96.10;;;;;;4990899;28;20070;-85
2023/07/09 05:10:57;;;;;;;9.38;8.07;;;17.70;95.60;;;;;;4992571;28;20394;-87
2023/07/09 05:13:24;;;;;;;9.95;8.48;;;17.80;95.20;;;;;;4993974;28;20202;-86
2023/07/09 05:15:51;;;;;;;16.10;10.00;;;17.90;95.00;;;;;;4972172;28;20076;-87
2023/07/09 05:18:18;;;;;;;10.45;9.30;;;18.00;95.60;;;;;;4957687;28;20042;-84
2023/07/09 05:20:46;;;;;;;11.25;9.70;;;18.00;95.10;;;;;;4958575;28;20030;-85
2023/07/09 05:23:12;;;;;;;9.30;8.38;;;18.00;94.70;;;;;;4961438;28;20037;-84
2023/07/09 05:25:37;;;;;;;11.15;9.38;;;18.00;95.40;;;;;;4982006;28;20018;-85
2023/07/09 05:28:05;;;;;;;12.23;9.30;;;18.10;93.50;;;;;;4960010;28;20503;-85
2023/07/09 05:30:31;;;;;;;9.93;8.60;;;18.20;92.20;;;;;;4984475;28;20579;-86
2023/07/09 05:32:57;;;;;;;12.32;9.60;;;18.40;91.90;;;;;;4952003;28;20038;-85
2023/07/09 05:35:27;;;;;;;10.70;9.25;;;18.50;92.00;;;;;;4989888;28;20019;-85
2023/07/09 05:37:54;;;;;;;10.05;8.75;;;18.70;91.90;;;;;;4973321;28;20090;-85
2023/07/09 05:40:22;;;;;;;12.18;8.43;;;18.90;91.10;;;;;;4970870;28;20522;-85
2023/07/09 05:42:49;;;;;;;10.48;7.88;;;19.20;91.20;;;;;;4989281;28;20030;-85
2023/07/09 05:45:15;;;;;;;9.65;7.47;;;19.50;91.50;;;;;;4991517;28;20035;-85
2023/07/09 05:47:41;;;;;;;11.88;8.98;;;19.90;92.30;;;;;;4971591;28;20130;-88
2023/07/09 05:50:07;;;;;;;10.20;8.85;;;20.30;90.20;;;;;;4960789;28;20413;-86
2023/07/09 05:52:33;;;;;;;10.38;9.13;;;20.50;89.40;;;;;;4976919;28;20050;-86
2023/07/09 05:54:59;;;;;;;10.27;9.15;;;20.80;88.30;;;;;;4987736;28;20525;-87
2023/07/09 05:57:25;;;;;;;11.75;9.30;;;21.10;88.10;;;;;;4974055;28;20073;-88
2023/07/09 05:59:51;;;;;;;13.40;9.27;;;21.40;86.00;;;;;;4986011;28;20064;-86
2023/07/09 06:02:19;;;;;;;11.70;9.02;;;21.70;84.80;;;;;;4993821;28;20026;-85
2023/07/09 06:04:46;;;;;;;10.52;9.25;;;22.00;83.10;;;;;;5010217;28;20472;-86
2023/07/09 06:07:15;;;;;;;11.70;8.75;;;22.40;80.50;;;;;;4989097;28;20034;-86
2023/07/09 06:09:47;;;;;;;9.30;7.82;;;22.80;77.10;;;;;;4991892;28;20477;-85
2023/07/09 06:12:13;;;;;;;10.07;7.85;;;23.10;73.90;;;;;;4978279;28;20085;-87
2023/07/09 06:14:40;;;;;;;10.30;8.63;;;23.20;73.00;;;;;;4962671;28;20030;-85
2023/07/09 06:17:06;;;;;;;8.85;7.43;;;23.40;72.60;;;;;;4974226;28;20113;-86
2023/07/09 06:19:32;;;;;;;8.15;7.35;;;23.70;72.10;;;;;;4970836;28;20398;-87
2023/07/09 06:21:58;;;;;;;12.52;10.25;;;24.00;70.30;;;;;;4970758;28;20034;-85
2023/07/09 06:24:23;;;;;;;9.13;8.18;;;24.20;69.40;;;;;;4946008;28;20038;-84
2023/07/09 06:26:49;;;;;;;8.57;7.68;;;24.30;70.30;;;;;;4974054;28;20651;-86
2023/07/09 06:29:15;;;;;;;8.82;7.45;;;24.70;71.40;;;;;;4973791;28;20034;-87
2023/07/09 06:31:42;;;;;;;9.43;7.75;;;25.00;67.90;;;;;;4973048;28;20685;-86
2023/07/09 06:34:09;;;;;;;9.27;7.35;;;24.90;65.60;;;;;;4950280;28;20512;-86
2023/07/09 06:36:35;;;;;;;8.60;7.25;;;25.00;65.00;;;;;;4974093;28;20416;-87
2023/07/09 06:39:00;;;;;;;9.38;6.80;;;25.00;68.50;;;;;;4973373;28;20026;-86
2023/07/09 06:41:26;;;;;;;10.10;7.43;;;25.30;65.70;;;;;;4972581;28;20519;-86
2023/07/09 06:43:52;;;;;;;9.63;8.63;;;25.70;63.50;;;;;;4972993;28;20119;-88
2023/07/09 06:46:19;;;;;;;8.43;7.32;;;25.70;61.40;;;;;;4960504;28;20037;-86
2023/07/09 06:48:45;;;;;;;11.23;8.23;;;26.00;63.60;;;;;;4978338;28;20026;-86
2023/07/09 06:51:12;;;;;;;10.00;7.90;;;26.30;60.50;;;;;;4987615;28;20023;-87
2023/07/09 06:53:39;;;;;;;10.38;7.63;;;26.40;62.40;;;;;;4989212;28;20022;-87
2023/07/09 06:56:05;;;;;;;8.30;7.50;;;26.50;61.40;;;;;;4988050;28;20447;-87
2023/07/09 06:58:33;;;;;;;7.22;6.50;;;27.00;61.70;;;;;;4972924;28;20035;-88
2023/07/09 07:01:03;;;;;;;13.85;6.90;;;27.30;57.40;;;;;;4985245;28;20036;-87
2023/07/09 07:03:30;;;;;;;9.65;7.47;;;27.40;56.70;;;;;;5006469;28;20029;-87
2023/07/09 07:05:57;;;;;;;8.63;6.95;;;27.30;57.80;;;;;;5006475;28;20026;-85
2023/07/09 07:08:25;;;;;;;8.27;7.22;;;27.20;56.90;;;;;;4975935;28;20041;-85
2023/07/09 07:11:04;;;;;;;9.90;7.18;;;27.20;57.20;;;;;;4994001;28;20030;-86
2023/07/09 07:13:34;;;;;;;8.18;7.13;;;27.30;57.60;;;;;;4986633;28;20041;-86
2023/07/09 07:16:02;;;;;;;7.70;6.95;;;27.50;58.50;;;;;;4983034;28;20101;-86
2023/07/09 07:18:28;;;;;;;7.65;6.82;;;27.80;60.20;;;;;;4990179;28;20038;-87
2023/07/09 07:20:54;;;;;;;10.38;7.07;;;28.10;58.60;;;;;;4981139;28;20169;-86
2023/07/09 07:23:20;;;;;;;7.75;6.95;;;28.30;58.30;;;;;;4965320;28;20097;-85
2023/07/09 07:25:46;;;;;;;10.25;7.50;;;28.40;57.00;;;;;;4977403;28;20034;-85
2023/07/09 07:28:12;;;;;;;9.95;7.30;;;28.80;58.50;;;;;;4981862;28;20023;-85
2023/07/09 07:30:38;;;;;;;13.38;8.75;;;29.00;55.70;;;;;;4971300;28;20027;-86
2023/07/09 07:33:04;;;;;;;8.82;6.82;;;29.20;58.10;;;;;;4990367;28;20046;-87
2023/07/09 07:35:29;;;;;;;9.65;7.03;;;29.10;55.80;;;;;;4973211;28;20125;-88
2023/07/09 07:37:55;;;;;;;7.57;6.88;;;29.00;55.50;;;;;;4974111;28;20482;-86
2023/07/09 07:40:21;;;;;;;9.65;7.00;;;28.60;56.20;;;;;;4982371;28;20041;-87
2023/07/09 07:42:47;;;;;;;8.75;6.65;;;28.50;56.80;;;;;;4957814;28;20038;-87
2023/07/09 07:45:13;;;;;;;9.35;6.70;;;28.30;58.30;;;;;;4960960;28;20038;-86
2023/07/09 07:47:39;;;;;;;8.35;6.75;;;28.30;58.20;;;;;;4976489;28;20126;-87
2023/07/09 07:50:06;;;;;;;6.95;6.22;;;28.40;62.00;;;;;;4991944;28;20058;-87
2023/07/09 07:52:32;;;;;;;11.48;7.25;;;28.50;61.00;;;;;;4959459;28;20125;-86
2023/07/09 07:54:58;;;;;;;9.27;6.70;;;28.60;58.10;;;;;;4968241;28;20393;-86
2023/07/09 07:57:27;;;;;;;8.60;7.35;;;28.70;61.90;;;;;;4996215;28;20045;-86
2023/07/09 07:59:53;;;;;;;7.65;6.75;;;28.80;60.20;;;;;;5008718;28;20072;-87
2023/07/09 08:02:18;;;;;;;7.07;6.38;;;28.80;58.10;;;;;;4959007;28;20059;-86
2023/07/09 08:04:44;;;;;;;11.85;6.90;;;28.90;59.10;;;;;;4956217;28;20560;-86
2023/07/09 08:07:10;;;;;;;8.10;6.25;;;29.20;57.80;;;;;;4969599;28;20026;-87
2023/07/09 08:09:36;;;;;;;7.05;6.22;;;29.20;57.50;;;;;;4991047;28;20082;-87
2023/07/09 08:12:08;;;;;;;13.57;6.47;;;29.30;56.90;;;;;;4959219;28;20030;-87
2023/07/09 08:14:38;;;;;;;9.75;6.95;;;29.40;56.90;;;;;;4978421;28;20046;-87
2023/07/09 08:17:05;;;;;;;8.25;6.32;;;29.80;56.70;;;;;;4976368;28;20046;-86
2023/07/09 08:19:31;;;;;;;6.57;5.63;;;30.00;56.30;;;;;;4976940;28;20173;-86
2023/07/09 08:21:57;;;;;;;9.07;6.43;;;30.30;55.50;;;;;;4972586;28;20128;-86
2023/07/09 08:24:23;;;;;;;11.38;6.50;;;30.40;55.10;;;;;;4992058;28;20120;-87
2023/07/09 08:26:49;;;;;;;9.63;6.05;;;30.60;55.00;;;;;;4957069;28;20071;-87
2023/07/09 08:29:17;;;;;;;8.57;6.38;;;30.90;55.90;;;;;;4973627;28;20038;-87
2023/07/09 08:31:42;;;;;;;9.13;6.20;;;31.10;56.80;;;;;;4960832;28;20501;-86
2023/07/09 08:34:08;;;;;;;6.82;6.20;;;31.10;54.10;;;;;;4976007;28;20038;-87
2023/07/09 08:36:38;;;;;;;8.65;5.93;;;31.40;54.50;;;;;;4966098;28;20042;-86
2023/07/09 08:39:03;;;;;;;5.95;5.35;;;31.70;58.60;;;;;;4985391;28;20401;-86
2023/07/09 08:42:07;;;;;;;7.93;5.88;;;31.90;54.20;;;;;;4951101;28;20105;-87
2023/07/09 08:44:55;;;;;;;6.07;5.47;;;32.10;56.00;;;;;;4975689;28;20030;-87
2023/07/09 08:48:00;;;;;;;7.07;5.70;;;32.40;56.70;;;;;;4998079;28;20668;-87
2023/07/09 08:50:34;;;;;;;5.70;5.20;;;32.20;51.30;;;;;;5009659;28;20034;-86
2023/07/09 08:53:01;;;;;;;7.73;5.80;;;32.20;51.40;;;;;;4992593;28;20030;-86
2023/07/09 08:55:29;;;;;;;6.70;5.20;;;32.10;52.80;;;;;;4946492;28;20034;-87
2023/07/09 08:58:05;;;;;;;7.40;5.35;;;32.10;53.70;;;;;;4990458;28;20030;-87
2023/07/09 09:00:32;;;;;;;6.13;4.80;;;32.00;53.90;;;;;;4971179;28;21279;-87
2023/07/09 09:03:02;;;;;;;7.10;5.18;;;31.90;53.10;;;;;;4991398;28;20042;-86
2023/07/09 09:05:31;;;;;;;8.50;5.28;;;31.80;52.70;;;;;;4974218;28;20669;-87
2023/07/09 09:08:12;;;;;;;5.53;5.03;;;31.40;51.30;;;;;;4955572;28;20037;-86
2023/07/09 09:10:53;;;;;;;7.78;5.25;;;31.20;54.30;;;;;;4994489;28;20433;-85
2023/07/09 09:13:23;;;;;;;4.93;4.00;;;31.30;55.90;;;;;;4963973;28;20039;-86
2023/07/09 09:15:49;;;;;;;8.38;4.30;;;31.00;51.20;;;;;;4967928;28;20085;-86
2023/07/09 09:18:27;;;;;;;5.95;4.55;;;31.00;51.30;;;;;;4919992;28;20043;-87
2023/07/09 09:21:32;;;;;;;5.78;4.10;;;30.90;52.70;;;;;;4958568;28;20033;-87
2023/07/09 09:24:22;;;;;;;3.70;3.30;;;30.80;51.80;;;;;;4972643;28;20512;-87
2023/07/09 09:26:51;;;;;;;3.97;2.80;;;30.80;51.40;;;;;;4980226;28;20043;-85
2023/07/09 09:29:17;;;;;;;4.82;3.35;;;30.90;53.90;;;;;;4989518;28;20042;-86
2023/07/09 09:31:52;;;;;;;5.93;3.42;;;30.90;49.90;;;;;;4983828;28;20042;-88
2023/07/09 09:34:22;;;;;;;;;;;30.90;50.10;;;;;;4988150;28;20124;-88
2023/07/09 09:36:48;;;;;;;4.35;3.75;;;30.80;49.70;;;;;;4962530;28;19957;-87
2023/07/09 09:39:14;;;;;;;4.50;3.13;;;30.80;52.50;;;;;;4982518;28;20122;-86
2023/07/09 09:41:42;;;;;;;6.22;3.40;;;30.70;49.60;;;;;;4938029;28;20050;-84
2023/07/09 09:44:19;;;;;;;5.00;3.58;;;30.70;50.90;;;;;;4964348;28;20130;-85
2023/07/09 09:46:45;;;;;;;7.65;3.85;;;30.70;53.10;;;;;;4986045;28;20042;-85
2023/07/09 09:49:10;;;;;;;4.38;3.15;;;30.90;55.60;;;;;;4979746;28;20138;-86
2023/07/09 09:51:42;;;;;;;4.95;3.55;;;30.90;52.00;;;;;;4961845;28;20093;-85
2023/07/09 09:54:27;;;;;;;6.25;3.40;;;31.10;55.40;;;;;;4995074;28;20057;-88
2023/07/09 09:56:53;;;;;;;6.10;3.25;;;31.10;54.50;;;;;;4991694;28;20022;-87
2023/07/09 09:59:27;;;;;;;3.72;3.22;;;31.20;52.70;;;;;;4996637;28;20030;-86
2023/07/09 10:02:01;;;;;;;6.45;3.80;;;31.20;51.90;;;;;;4968482;28;20041;-88
2023/07/09 10:04:28;;;;;;;8.23;3.95;;;31.20;53.70;;;;;;4982000;28;20065;-88
2023/07/09 10:06:58;;;;;;;5.15;3.45;;;31.10;48.90;;;;;;4992976;28;20037;-87
2023/07/09 10:09:42;;;;;;;5.47;4.07;;;31.20;51.70;;;;;;4965705;28;20031;-86
2023/07/09 10:12:26;;;;;;;6.38;3.67;;;31.20;52.40;;;;;;4994542;28;20035;-87
2023/07/09 10:15:00;;;;;;;6.57;3.95;;;31.20;52.00;;;;;;4979190;28;20030;-86
2023/07/09 10:17:26;;;;;;;4.80;3.40;;;31.10;47.00;;;;;;4953523;28;20049;-89
2023/07/09 10:19:57;;;;;;;7.22;4.07;;;30.90;47.80;;;;;;4987348;28;20034;-86
2023/07/09 10:22:37;;;;;;;4.85;3.30;;;30.90;49.00;;;;;;4997663;28;20543;-86
2023/07/09 10:25:21;;;;;;;4.45;3.70;;;31.10;51.70;;;;;;4973932;28;20030;-86
2023/07/09 10:28:06;;;;;;;6.97;3.78;;;31.20;52.50;;;;;;4995666;28;20065;-87
2023/07/09 10:31:06;;;;;;;6.40;4.20;;;31.30;52.90;;;;;;4985796;28;20100;-87
2023/07/09 10:33:56;;;;;;;5.57;4.00;;;31.30;49.00;;;;;;4962803;28;20171;-87
2023/07/09 10:36:46;;;;;;;7.78;3.80;;;31.40;49.40;;;;;;4981018;28;20034;-87
2023/07/09 10:39:25;;;;;;;4.28;3.88;;;31.30;46.90;;;;;;4966299;28;20092;-87
2023/07/09 10:41:56;;;;;;;5.32;3.72;;;31.40;48.00;;;;;;4984044;28;20027;-86
2023/07/09 10:44:28;;;;;;;6.35;3.75;;;31.40;48.60;;;;;;4978425;28;20046;-87
2023/07/09 10:47:06;;;;;;;5.70;3.90;;;31.60;48.00;;;;;;4987368;28;20109;-87
2023/07/09 10:49:38;;;;;;;5.68;4.30;;;31.60;47.10;;;;;;4971051;28;20070;-87
2023/07/09 10:52:17;;;;;;;5.50;3.80;;;31.50;47.90;;;;;;4972965;28;20065;-87
2023/07/09 10:55:05;;;;;;;6.13;4.10;;;31.40;47.20;;;;;;4991041;28;20409;-86
2023/07/09 10:57:54;;;;;;;7.60;3.85;;;31.40;46.80;;;;;;4974743;28;20475;-88
2023/07/09 11:00:24;;;;;;;6.43;3.58;;;31.40;48.80;;;;;;4990779;28;20149;-88
2023/07/09 11:03:02;;;;;;;6.93;4.00;;;31.50;50.40;;;;;;4962043;28;20101;-85
2023/07/09 11:05:27;;;;;;;8.27;3.47;;;31.70;51.50;;;;;;4973713;28;20066;-87
2023/07/09 11:08:15;;;;;;;6.20;3.45;;;31.80;52.00;;;;;;4975385;28;20069;-88
2023/07/09 11:10:47;;;;;;;5.47;3.22;;;31.90;48.00;;;;;;5005424;28;20396;-88
2023/07/09 11:13:19;;;;;;;6.45;3.10;;;32.00;47.90;;;;;;4978773;28;20122;-87
2023/07/09 11:15:48;;;;;;;4.65;3.30;;;32.20;48.80;;;;;;4980336;28;20030;-87
2023/07/09 11:18:24;;;;;;;6.43;3.90;;;32.30;48.60;;;;;;4972469;28;20062;-86
2023/07/09 11:20:55;;;;;;;;;;;32.50;47.90;;;;;;5003231;28;20030;-87
2023/07/09 11:23:24;;;;;;;4.05;3.42;;;32.50;48.70;;;;;;4996197;28;20288;-88
2023/07/09 11:26:02;;;;;;;7.43;3.30;;;32.60;47.60;;;;;;5010390;28;20034;-87
2023/07/09 11:28:37;;;;;;;3.78;3.28;;;32.60;46.90;;;;;;4981835;28;20049;-86
2023/07/09 11:31:21;;;;;;;4.78;3.70;;;32.40;42.80;;;;;;4979865;28;20478;-87
2023/07/09 11:33:58;;;;;;;7.75;3.95;;;32.10;42.90;;;;;;4993945;28;20038;-87
2023/07/09 11:36:27;;;;;;;6.93;3.35;;;32.00;43.40;;;;;;5007110;28;20554;-89
2023/07/09 11:38:54;;;;;;;6.40;3.10;;;32.00;46.80;;;;;;4991003;28;20547;-86
2023/07/09 11:41:34;;;;;;;5.75;3.30;;;32.20;50.40;;;;;;4973775;28;20054;-85
2023/07/09 11:44:05;;;;;;;3.53;3.05;;;32.30;48.40;;;;;;4952869;28;20093;-87
2023/07/09 11:46:31;;;;;;;5.03;3.40;;;32.50;47.20;;;;;;4985122;28;20030;-87
2023/07/09 11:49:01;;;;;;;4.47;3.30;;;32.60;48.50;;;;;;4967956;28;20493;-86
2023/07/09 11:51:44;;;;;;;4.20;3.60;;;32.80;48.30;;;;;;4977540;28;20022;-86
2023/07/09 11:54:13;;;;;;;4.78;3.20;;;33.00;46.70;;;;;;4990605;28;20035;-86
2023/07/09 11:56:39;;;;;;;4.97;2.78;;;32.80;41.20;;;;;;4968611;28;20038;-86
2023/07/09 11:59:05;;;;;;;4.43;3.42;;;32.80;43.60;;;;;;4990486;28;20090;-86
2023/07/09 12:01:54;;;;;;;6.43;3.92;;;32.90;42.40;;;;;;4972766;28;20173;-86
2023/07/09 12:04:23;;;;;;;4.60;3.33;;;32.80;42.00;;;;;;4985696;28;20401;-86
2023/07/09 12:06:52;;;;;;;4.30;3.38;;;32.90;44.50;;;;;;4988647;28;20038;-86
2023/07/09 12:09:20;;;;;;;7.88;3.72;;;32.90;44.10;;;;;;4967644;28;20038;-86
2023/07/09 12:11:50;;;;;;;6.28;3.30;;;32.80;41.40;;;;;;4974321;28;20085;-86
2023/07/09 12:14:18;;;;;;;6.22;3.38;;;32.80;46.30;;;;;;4984194;28;20073;-86
2023/07/09 12:16:50;;;;;;;4.80;3.42;;;32.80;42.80;;;;;;4972572;28;20492;-87
2023/07/09 12:19:21;;;;;;;6.50;3.65;;;32.90;43.90;;;;;;4990716;28;20045;-86
2023/07/09 12:21:55;;;;;;;6.05;3.40;;;33.00;44.70;;;;;;4975612;28;20065;-87
2023/07/09 12:24:27;;;;;;;3.60;2.97;;;33.20;44.80;;;;;;4987667;28;20121;-87
2023/07/09 12:26:58;;;;;;;5.95;3.70;;;33.40;45.20;;;;;;4993482;28;20069;-87
2023/07/09 12:29:51;;;;;;;4.30;3.13;;;33.60;44.40;;;;;;4966137;28;20030;-87
2023/07/09 12:32:17;;;;;;;6.03;3.25;;;33.90;42.90;;;;;;4992866;28;20915;-87
2023/07/09 12:34:56;;;;;;;4.72;3.75;;;34.20;42.80;;;;;;4967392;28;20023;-88
2023/07/09 12:37:25;;;;;;;4.22;3.22;;;34.10;39.60;;;;;;4989079;28;20063;-87
2023/07/09 12:39:52;;;;;;;4.88;3.42;;;34.10;41.80;;;;;;4985467;28;20038;-88
2023/07/09 12:42:37;;;;;;;3.90;3.25;;;34.20;39.00;;;;;;4982178;28;20030;-88
2023/07/09 12:45:04;;;;;;;8.30;3.63;;;34.30;41.10;;;;;;4946051;28;20041;-86
2023/07/09 12:47:30;;;;;;;7.55;4.00;;;34.50;40.50;;;;;;4967097;28;20046;-89
2023/07/09 12:50:29;;;;;;;3.63;3.00;;;34.70;37.60;;;;;;4993909;28;20060;-88
2023/07/09 12:52:57;;;;;;;3.75;3.40;;;34.90;39.20;;;;;;4973518;28;20027;-86
2023/07/09 12:55:26;;;;;;;8.93;3.50;;;34.70;37.50;;;;;;4979953;28;20544;-87
2023/07/09 12:57:56;;;;;;;7.78;3.20;;;34.60;40.20;;;;;;4974371;28;20469;-86
2023/07/09 13:00:25;;;;;;;6.20;3.47;;;34.40;40.70;;;;;;4984482;28;20413;-86